Pagrindinis puslapis
METAR-TAF:

METAR-TAF

Oro uostai :

Džakarta, Java, Indonezija

platuma: 06-07S, ilguma: 106-39E, Aukštis: 8 m

Dabartinis oras

Ataskaita buvo paskelbta 8 minutes, ne 20:00 UTC
Vėjas 3 kt iš Pietų
Temperatūra 26°C
Drėgmė 70%
Slėgis 1011 hPa
Matomumas: 5000 m
Mažai debesys ne aukštis 2000 ft
migla

METAR: WIII 202000Z 18003KT 5000 HZ FEW020 26/20 Q1011 NOSIG

Laikas: 03:08 (20:08 UTC)

Prognozė

Ataskaita buvo paskelbta 3 valandos ir 8 minutes, ne 17:00 UTC
Prognozė galioja nuo 20 metu 18 UTC su 21 metu 24 UTC
Vėjas 4 kt iš Pietryčių
Matomumas: 5000 m
Mažai debesys ne aukštis 2000 ft
migla
Tapsmas
nuo 21 metu 02 UTC su 21 metu 04 UTC
Vėjas 12 kt iš Šiaurės Rytų

TAF: WIII 201700Z 2018/2124 13004KT 5000 HZ FEW020 BECMG 2102/2104 05012KT NSW

Orai ataskaitas ir orų prognozės (METAR, TAF).

turimą stotys yra geltonos ir raudonos taškus žemėlapyje.

Perkelti pele per norėdami pamatyti stoties vardą.

Tada spustelėkite, norėdami matyti oro stebėjimo ir prognozės.

Norėdami pakeisti žemėlapį: spustelėkite ant žalios mygtukų su juodo kryžiaus žemyn,; žalią mygtuką su brūkšneliu, jei norite nutolinti; arba žalių rodyklių gretimoms žemėlapius.


METAR-TAF: